Hakuhomaru — JJ4011 — position and weather

sailwx.info

Track history (hours):
 
Tides and Currents Weather Stations Pressure Air Temp Water Temp Dewpoint Dewpoint Depression Visibility Wind Speed Wind Dir Waves Ship Positions

Hakuhomaru

Last reported at 2015-Jul-29 23:25 UTC. Time now 2015-Jul-31 03:06 UTC.
Position N 34°41' E 135°12'.

Length 38 m; draft 3.3 m.

Type: Tug. MMSI: 431401584.

Date/timePositionNaut miles runAvg speedWind from/ knotsBaromVisibWave heightAir tempDewpointWater temp
2015-Jul-29 23:25N 34°41' E 135°12'2 2.2
2015-Jul-29 22:32N 34°40' E 135°14'1 1.1
2015-Jul-29 21:33N 34°39' E 135°15'3 2.8
2015-Jul-29 20:33N 34°41' E 135°13'1 0.6
2015-Jul-29 19:33N 34°41' E 135°12'0 0.0
2015-Jul-29 18:33N 34°41' E 135°12'0 0.0
2015-Jul-29 05:32N 34°41' E 135°12'1110.8
2015-Jul-29 04:32N 34°39' E 135°25'1 1.3
2015-Jul-29 03:33N 34°40' E 135°24'9 9.4
2015-Jul-29 02:33N 34°41' E 135°12'0 0.0
2015-Jul-29 01:33N 34°41' E 135°12'0 0.0
2015-Jul-29 00:33N 34°41' E 135°12'0 0.0
2015-Jul-28 23:33N 34°41' E 135°12'0 0.0
2015-Jul-28 22:33N 34°41' E 135°12'0 0.0
2015-Jul-28 06:33N 34°41' E 135°12'0 0.0
2015-Jul-28 05:33N 34°41' E 135°12'2 2.2
2015-Jul-28 04:33N 34°42' E 135°15'2 1.6
2015-Jul-28 03:33N 34°40' E 135°15'0 0.0
2015-Jul-28 02:33N 34°40' E 135°15'0 0.0
2015-Jul-28 01:32N 34°40' E 135°15'2 2.2
2015-Jul-28 00:33N 34°42' E 135°16'1 1.2
2015-Jul-27 23:33N 34°41' E 135°15'2 1.6
2015-Jul-27 22:33N 34°40' E 135°16'3 3.2
2015-Jul-27 21:33N 34°41' E 135°12'0 0.1
2015-Jul-27 20:33N 34°41' E 135°12'0 0.0
2015-Jul-27 11:19N 34°41' E 135°12'4 5.4
2015-Jul-27 10:34N 34°41' E 135°17'2 2.4
2015-Jul-27 09:34N 34°42' E 135°14'1 0.6
2015-Jul-27 08:33N 34°41' E 135°14'2 2.2
2015-Jul-27 07:33N 34°41' E 135°17'4 3.6
2015-Jul-27 06:33N 34°41' E 135°13'0 0.0
2015-Jul-27 05:34N 34°41' E 135°13'0 0.0
2015-Jul-27 04:33N 34°41' E 135°13'1 1.4
2015-Jul-27 03:33N 34°41' E 135°14'0 0.0
2015-Jul-27 02:33N 34°41' E 135°14'0 0.0
2015-Jul-27 01:34N 34°41' E 135°14'1 0.8
2015-Jul-27 00:33N 34°42' E 135°15'2 1.7
2015-Jul-26 23:34N 34°41' E 135°13'3 3.4
2015-Jul-26 22:33N 34°42' E 135°17'2 1.8
2015-Jul-26 21:33N 34°41' E 135°18'5 4.9
2015-Jul-26 20:34N 34°41' E 135°12'0 0.0
2015-Jul-26 05:33N 34°41' E 135°12'0 0.0
2015-Jul-26 04:33N 34°41' E 135°12'0 0.0
2015-Jul-26 03:33N 34°41' E 135°12'0 0.0
2015-Jul-26 02:33N 34°41' E 135°12'0 0.0
2015-Jul-26 01:33N 34°41' E 135°12'2 2.4
2015-Jul-26 00:33N 34°41' E 135°15'1 0.9
2015-Jul-25 23:33N 34°42' E 135°15'2 2.2
2015-Jul-25 22:33N 34°41' E 135°17'3 2.6
2015-Jul-25 21:33N 34°41' E 135°14'2 1.6
2015-Jul-25 20:33N 34°41' E 135°12'1 0.1
2015-Jul-25 10:33N 34°41' E 135°14'1 0.7
2015-Jul-25 09:33N 34°41' E 135°15'2 2.4
2015-Jul-25 08:33N 34°41' E 135°17'2 2.5
2015-Jul-25 07:33N 34°41' E 135°14'0 0.0
2015-Jul-25 06:33N 34°41' E 135°14'0 0.0
2015-Jul-25 05:33N 34°41' E 135°14'0 0.0
2015-Jul-25 04:33N 34°41' E 135°14'1 0.7
2015-Jul-25 03:33N 34°41' E 135°15'2 2.0
2015-Jul-25 02:34N 34°39' E 135°15'0 0.3
2015-Jul-25 01:33N 34°39' E 135°15'1 1.4
2015-Jul-25 00:33N 34°39' E 135°16'2 2.2
2015-Jul-24 23:33N 34°41' E 135°17'1 1.0
2015-Jul-24 22:33N 34°42' E 135°18'2 2.3
2015-Jul-24 21:34N 34°41' E 135°15'2 2.5
2015-Jul-24 20:33N 34°41' E 135°12'  
2015-Jul-22 12:07N 34°41' E 135°12'0 0.0
2015-Jul-22 11:34N 34°41' E 135°12'2 2.3
2015-Jul-22 10:34N 34°41' E 135°15'2 1.7
2015-Jul-22 09:33N 34°41' E 135°17'4 3.7
2015-Jul-22 08:34N 34°41' E 135°13'2 2.3
2015-Jul-22 07:34N 34°41' E 135°15'1 1.3
2015-Jul-22 06:33N 34°39' E 135°15'1 1.3
2015-Jul-22 05:33N 34°40' E 135°15'1 0.8
2015-Jul-22 04:33N 34°41' E 135°14'0 0.0
2015-Jul-22 03:33N 34°41' E 135°14'0 0.0
2015-Jul-22 02:33N 34°41' E 135°14'0 0.0
2015-Jul-22 01:33N 34°41' E 135°14'0 0.0
2015-Jul-22 00:33N 34°41' E 135°14'1 0.8
2015-Jul-21 23:33N 34°42' E 135°15'1 1.0
2015-Jul-21 22:33N 34°41' E 135°15'1 0.6
2015-Jul-21 21:33N 34°41' E 135°14'2 1.7
2015-Jul-21 20:33N 34°41' E 135°12'2 0.2
2015-Jul-21 07:33N 34°40' E 135°15'9 2.5
2015-Jul-21 04:06N 34°33' E 135°21'2 2.6
2015-Jul-21 03:09N 34°34' E 135°24'2 3.1
2015-Jul-21 02:32N 34°33' E 135°26'0 0.1
2015-Jul-21 01:33N 34°33' E 135°26'3 2.9
2015-Jul-21 00:32N 34°33' E 135°22'3 2.1
2015-Jul-20 23:12N 34°36' E 135°24'3 3.8
2015-Jul-20 22:32N 34°35' E 135°27'0 0.4
2015-Jul-20 21:33N 34°35' E 135°27'1110.8
2015-Jul-20 20:33N 34°41' E 135°15'2 2.3
2015-Jul-20 19:33N 34°41' E 135°12'0 0.0
2015-Jul-20 00:16N 34°41' E 135°12'3 4.1
2015-Jul-19 23:33N 34°42' E 135°15'  
Track history (hours):
 
Tides and Currents Weather Stations Pressure Air Temp Water Temp Dewpoint Dewpoint Depression Visibility Wind Speed Wind Dir Waves Ship Positions

Hakuhomaru

Last reported at 2015-Jul-29 23:25 UTC. Time now 2015-Jul-31 03:06 UTC.
Position N 34°41' E 135°12'.

Length 38 m; draft 3.3 m.

Type: Tug. MMSI: 431401584.

Date/timePositionNaut miles runAvg speedWind from/ knotsBaromVisibWave heightAir tempDewpointWater temp
2015-Jul-29 23:25N 34°41' E 135°12'2 2.2
2015-Jul-29 22:32N 34°40' E 135°14'1 1.1
2015-Jul-29 21:33N 34°39' E 135°15'3 2.8
2015-Jul-29 20:33N 34°41' E 135°13'1 0.6
2015-Jul-29 19:33N 34°41' E 135°12'0 0.0
2015-Jul-29 18:33N 34°41' E 135°12'0 0.0
2015-Jul-29 05:32N 34°41' E 135°12'1110.8
2015-Jul-29 04:32N 34°39' E 135°25'1 1.3
2015-Jul-29 03:33N 34°40' E 135°24'9 9.4
2015-Jul-29 02:33N 34°41' E 135°12'0 0.0
2015-Jul-29 01:33N 34°41' E 135°12'0 0.0
2015-Jul-29 00:33N 34°41' E 135°12'0 0.0
2015-Jul-28 23:33N 34°41' E 135°12'0 0.0
2015-Jul-28 22:33N 34°41' E 135°12'0 0.0
2015-Jul-28 06:33N 34°41' E 135°12'0 0.0
2015-Jul-28 05:33N 34°41' E 135°12'2 2.2
2015-Jul-28 04:33N 34°42' E 135°15'2 1.6
2015-Jul-28 03:33N 34°40' E 135°15'0 0.0
2015-Jul-28 02:33N 34°40' E 135°15'0 0.0
2015-Jul-28 01:32N 34°40' E 135°15'2 2.2
2015-Jul-28 00:33N 34°42' E 135°16'1 1.2
2015-Jul-27 23:33N 34°41' E 135°15'2 1.6
2015-Jul-27 22:33N 34°40' E 135°16'3 3.2
2015-Jul-27 21:33N 34°41' E 135°12'0 0.1
2015-Jul-27 20:33N 34°41' E 135°12'0 0.0
2015-Jul-27 11:19N 34°41' E 135°12'4 5.4
2015-Jul-27 10:34N 34°41' E 135°17'2 2.4
2015-Jul-27 09:34N 34°42' E 135°14'1 0.6
2015-Jul-27 08:33N 34°41' E 135°14'2 2.2
2015-Jul-27 07:33N 34°41' E 135°17'4 3.6
2015-Jul-27 06:33N 34°41' E 135°13'0 0.0
2015-Jul-27 05:34N 34°41' E 135°13'0 0.0
2015-Jul-27 04:33N 34°41' E 135°13'1 1.4
2015-Jul-27 03:33N 34°41' E 135°14'0 0.0
2015-Jul-27 02:33N 34°41' E 135°14'0 0.0
2015-Jul-27 01:34N 34°41' E 135°14'1 0.8
2015-Jul-27 00:33N 34°42' E 135°15'2 1.7
2015-Jul-26 23:34N 34°41' E 135°13'3 3.4
2015-Jul-26 22:33N 34°42' E 135°17'2 1.8
2015-Jul-26 21:33N 34°41' E 135°18'5 4.9
2015-Jul-26 20:34N 34°41' E 135°12'0 0.0
2015-Jul-26 05:33N 34°41' E 135°12'0 0.0
2015-Jul-26 04:33N 34°41' E 135°12'0 0.0
2015-Jul-26 03:33N 34°41' E 135°12'0 0.0
2015-Jul-26 02:33N 34°41' E 135°12'0 0.0
2015-Jul-26 01:33N 34°41' E 135°12'2 2.4
2015-Jul-26 00:33N 34°41' E 135°15'1 0.9
2015-Jul-25 23:33N 34°42' E 135°15'2 2.2
2015-Jul-25 22:33N 34°41' E 135°17'3 2.6
2015-Jul-25 21:33N 34°41' E 135°14'2 1.6
2015-Jul-25 20:33N 34°41' E 135°12'1 0.1
2015-Jul-25 10:33N 34°41' E 135°14'1 0.7
2015-Jul-25 09:33N 34°41' E 135°15'2 2.4
2015-Jul-25 08:33N 34°41' E 135°17'2 2.5
2015-Jul-25 07:33N 34°41' E 135°14'0 0.0
2015-Jul-25 06:33N 34°41' E 135°14'0 0.0
2015-Jul-25 05:33N 34°41' E 135°14'0 0.0
2015-Jul-25 04:33N 34°41' E 135°14'1 0.7
2015-Jul-25 03:33N 34°41' E 135°15'2 2.0
2015-Jul-25 02:34N 34°39' E 135°15'0 0.3
2015-Jul-25 01:33N 34°39' E 135°15'1 1.4
2015-Jul-25 00:33N 34°39' E 135°16'2 2.2
2015-Jul-24 23:33N 34°41' E 135°17'1 1.0
2015-Jul-24 22:33N 34°42' E 135°18'2 2.3
2015-Jul-24 21:34N 34°41' E 135°15'2 2.5
2015-Jul-24 20:33N 34°41' E 135°12'  
2015-Jul-22 12:07N 34°41' E 135°12'0 0.0
2015-Jul-22 11:34N 34°41' E 135°12'2 2.3
2015-Jul-22 10:34N 34°41' E 135°15'2 1.7
2015-Jul-22 09:33N 34°41' E 135°17'4 3.7
2015-Jul-22 08:34N 34°41' E 135°13'2 2.3
2015-Jul-22 07:34N 34°41' E 135°15'1 1.3
2015-Jul-22 06:33N 34°39' E 135°15'1 1.3
2015-Jul-22 05:33N 34°40' E 135°15'1 0.8
2015-Jul-22 04:33N 34°41' E 135°14'0 0.0
2015-Jul-22 03:33N 34°41' E 135°14'0 0.0
2015-Jul-22 02:33N 34°41' E 135°14'0 0.0
2015-Jul-22 01:33N 34°41' E 135°14'0 0.0
2015-Jul-22 00:33N 34°41' E 135°14'1 0.8
2015-Jul-21 23:33N 34°42' E 135°15'1 1.0
2015-Jul-21 22:33N 34°41' E 135°15'1 0.6
2015-Jul-21 21:33N 34°41' E 135°14'2 1.7
2015-Jul-21 20:33N 34°41' E 135°12'2 0.2
2015-Jul-21 07:33N 34°40' E 135°15'9 2.5
2015-Jul-21 04:06N 34°33' E 135°21'2 2.6
2015-Jul-21 03:09N 34°34' E 135°24'2 3.1
2015-Jul-21 02:32N 34°33' E 135°26'0 0.1
2015-Jul-21 01:33N 34°33' E 135°26'3 2.9
2015-Jul-21 00:32N 34°33' E 135°22'3 2.1
2015-Jul-20 23:12N 34°36' E 135°24'3 3.8
2015-Jul-20 22:32N 34°35' E 135°27'0 0.4
2015-Jul-20 21:33N 34°35' E 135°27'1110.8
2015-Jul-20 20:33N 34°41' E 135°15'2 2.3
2015-Jul-20 19:33N 34°41' E 135°12'0 0.0
2015-Jul-20 00:16N 34°41' E 135°12'3 4.1
2015-Jul-19 23:33N 34°42' E 135°15'  

Dump ship's entire track history